Time;durP1;ratioP1;P1;durP2;ratioP2;P2;SDS_P1;SDS_P2;PMS_P1;PMS_P2;Temp;Humidity;BMP_temperature;BMP_pressure;BME280_temperature;BME280_humidity;BME280_pressure;Samples;Min_cycle;Max_cycle;Signal;HPM_P1;HPM_P2
2021/08/06 00:00:07;;;;;;;2.60;2.40;;;15.90;99.90;;;;;;4918507;29;20247;-79
2021/08/06 00:02:35;;;;;;;2.87;2.67;;;15.90;99.90;;;;;;4918773;29;20611;-80
2021/08/06 00:05:02;;;;;;;2.30;2.10;;;15.90;99.90;;;;;;4912748;29;20228;-79
2021/08/06 00:07:29;;;;;;;2.63;2.43;;;15.90;99.90;;;;;;4914366;29;20206;-79
2021/08/06 00:09:56;;;;;;;6.93;6.53;;;15.80;99.90;;;;;;4908703;29;20212;-80
2021/08/06 00:12:23;;;;;;;8.23;7.73;;;15.80;99.90;;;;;;4911550;29;20568;-79
2021/08/06 00:14:50;;;;;;;21.93;8.13;;;15.70;99.90;;;;;;4917546;29;20245;-79
2021/08/06 00:17:18;;;;;;;8.77;8.20;;;15.70;99.90;;;;;;4916912;29;20198;-79
2021/08/06 00:19:45;;;;;;;6.57;6.10;;;15.60;99.90;;;;;;4915699;29;20239;-79
2021/08/06 00:22:12;;;;;;;3.33;3.03;;;15.60;99.90;;;;;;4917168;29;20203;-79
2021/08/06 00:24:39;;;;;;;3.80;3.60;;;15.60;99.90;;;;;;4915599;29;20226;-79
2021/08/06 00:27:05;;;;;;;4.10;3.87;;;15.60;99.90;;;;;;4911339;29;20203;-79
2021/08/06 00:29:32;;;;;;;2.87;2.70;;;15.60;99.90;;;;;;4915728;29;20264;-80
2021/08/06 00:31:59;;;;;;;6.60;6.20;;;15.60;99.90;;;;;;4916064;29;20196;-80
2021/08/06 00:34:28;;;;;;;8.27;7.77;;;15.60;99.90;;;;;;4909548;29;20192;-79
2021/08/06 00:36:55;;;;;;;7.73;7.23;;;15.60;99.90;;;;;;4931507;29;20287;-79
2021/08/06 00:39:26;;;;;;;8.10;7.60;;;15.60;99.90;;;;;;4915636;29;20196;-80
2021/08/06 00:41:54;;;;;;;8.47;7.97;;;15.50;99.90;;;;;;4907432;29;20575;-80
2021/08/06 00:44:22;;;;;;;8.23;7.73;;;15.50;99.90;;;;;;4911415;29;20199;-79
2021/08/06 00:46:51;;;;;;;7.90;7.40;;;15.40;99.90;;;;;;4915056;29;20196;-79
2021/08/06 00:49:19;;;;;;;7.50;7.00;;;15.40;99.90;;;;;;4910686;29;20572;-80
2021/08/06 00:51:51;;;;;;;8.03;7.57;;;15.40;99.90;;;;;;4930309;29;20216;-79
2021/08/06 00:54:20;;;;;;;3.80;3.50;;;15.30;99.90;;;;;;4915029;29;20195;-79
2021/08/06 00:57:02;;;;;;;6.90;6.50;;;15.30;99.90;;;;;;4914882;29;20228;-78
2021/08/06 00:59:29;;;;;;;10.07;9.47;;;15.30;99.90;;;;;;4915051;29;20196;-80
2021/08/06 01:02:07;;;;;;;8.20;7.70;;;15.20;99.90;;;;;;4912537;29;20196;-79
2021/08/06 01:04:45;;;;;;;8.10;7.60;;;15.20;99.90;;;;;;4909630;29;20199;-80
2021/08/06 01:07:23;;;;;;;9.43;8.93;;;15.20;99.90;;;;;;4912055;29;20203;-80
2021/08/06 01:09:56;;;;;;;9.90;9.30;;;15.10;99.90;;;;;;4914828;29;20220;-79
2021/08/06 01:12:44;;;;;;;8.53;7.97;;;15.10;99.90;;;;;;4909762;29;20208;-78
2021/08/06 01:15:12;;;;;;;9.73;8.93;;;15.00;99.90;;;;;;4914464;29;20670;-79
2021/08/06 01:17:45;;;;;;;8.27;7.80;;;15.00;99.90;;;;;;4908138;29;20562;-79
2021/08/06 01:20:17;;;;;;;8.10;7.60;;;14.90;99.90;;;;;;4911570;29;20572;-79
2021/08/06 01:22:50;;;;;;;9.60;9.10;;;14.90;99.90;;;;;;4916175;29;20765;-79
2021/08/06 01:25:58;;;;;;;8.70;8.20;;;14.80;99.90;;;;;;4909552;29;20196;-79
2021/08/06 01:28:41;;;;;;;9.10;8.60;;;14.80;99.90;;;;;;4893932;29;20203;-79
2021/08/06 01:31:10;;;;;;;10.00;9.40;;;14.80;99.90;;;;;;4910623;29;20231;-79
2021/08/06 01:33:43;;;;;;;9.60;9.00;;;14.80;99.90;;;;;;4928446;29;20222;-80
2021/08/06 01:36:12;;;;;;;9.13;8.43;;;14.70;99.90;;;;;;4916290;29;20207;-79
2021/08/06 01:38:39;;;;;;;8.33;7.83;;;14.70;99.90;;;;;;4917837;29;20699;-79
2021/08/06 01:41:18;;;;;;;8.70;8.20;;;14.70;99.90;;;;;;4934114;23;20227;-78
2021/08/06 01:43:59;;;;;;;8.70;8.20;;;14.70;99.90;;;;;;4934066;29;20744;-78
2021/08/06 01:46:31;;;;;;;9.20;8.60;;;14.70;99.90;;;;;;4933506;29;20206;-78
2021/08/06 01:49:09;;;;;;;8.90;8.40;;;14.70;99.90;;;;;;4906363;29;20306;-77
2021/08/06 01:51:38;;;;;;;9.27;8.77;;;14.80;99.90;;;;;;4907213;29;20253;-77
2021/08/06 01:54:05;;;;;;;8.93;8.43;;;14.80;99.90;;;;;;4913229;29;20299;-77
2021/08/06 01:56:36;;;;;;;9.13;8.63;;;14.90;99.90;;;;;;4912770;29;20287;-77
2021/08/06 01:59:04;;;;;;;10.27;9.67;;;15.00;99.90;;;;;;4917763;29;20211;-78
2021/08/06 02:01:40;;;;;;;9.23;8.67;;;15.00;99.90;;;;;;4917632;29;20230;-77
2021/08/06 02:04:12;;;;;;;9.93;9.33;;;15.10;99.90;;;;;;4918202;29;20287;-78
2021/08/06 02:06:43;;;;;;;4.40;4.10;;;15.20;99.90;;;;;;4918008;29;20342;-78
2021/08/06 02:09:16;;;;;;;9.40;8.90;;;15.30;99.90;;;;;;4912346;29;20294;-77
2021/08/06 02:11:46;;;;;;;8.90;8.40;;;15.30;99.90;;;;;;4917859;29;20220;-77
2021/08/06 02:14:20;;;;;;;7.13;6.73;;;15.30;99.90;;;;;;4915770;29;20206;-78
2021/08/06 02:16:51;;;;;;;8.33;7.83;;;15.40;99.90;;;;;;4917890;29;20751;-78
2021/08/06 02:19:23;;;;;;;4.47;4.17;;;15.50;99.90;;;;;;4912959;29;20200;-78
2021/08/06 02:21:58;;;;;;;4.50;4.20;;;15.50;99.90;;;;;;4933095;29;20243;-78
2021/08/06 02:24:29;;;;;;;7.73;7.33;;;15.50;99.90;;;;;;4918090;29;20196;-77
2021/08/06 02:26:58;;;;;;;7.20;6.80;;;15.60;99.90;;;;;;4917426;29;20198;-79
2021/08/06 02:29:33;;;;;;;8.73;8.23;;;15.60;99.90;;;;;;4917949;29;20204;-77
2021/08/06 02:32:02;;;;;;;5.10;4.80;;;15.60;99.90;;;;;;4919141;29;20208;-77
2021/08/06 02:34:30;;;;;;;4.83;4.43;;;15.70;99.90;;;;;;4913362;29;20208;-78
2021/08/06 02:36:58;;;;;;;4.33;4.03;;;15.70;99.90;;;;;;4911677;29;20192;-78
2021/08/06 02:39:28;;;;;;;4.00;3.70;;;15.70;99.90;;;;;;4917981;29;20200;-77
2021/08/06 02:41:59;;;;;;;4.40;4.00;;;15.70;99.90;;;;;;4922006;29;20220;-77
2021/08/06 02:44:26;;;;;;;5.63;5.23;;;15.80;99.90;;;;;;4919663;29;20191;-77
2021/08/06 02:46:53;;;;;;;9.37;8.87;;;15.80;99.90;;;;;;4927853;29;20620;-77
2021/08/06 02:49:20;;;;;;;8.50;8.00;;;15.80;99.90;;;;;;4925399;29;20199;-79
2021/08/06 02:51:47;;;;;;;6.80;6.40;;;15.80;99.90;;;;;;4923770;29;20209;-76
2021/08/06 02:54:15;;;;;;;5.60;5.30;;;15.80;99.90;;;;;;4938202;29;20277;-77
2021/08/06 02:56:42;;;;;;;4.30;4.00;;;15.90;99.90;;;;;;4924218;29;20206;-78
2021/08/06 02:59:10;;;;;;;4.30;4.00;;;15.90;99.90;;;;;;4928039;29;20235;-78
2021/08/06 03:01:38;;;;;;;4.10;3.80;;;15.90;99.90;;;;;;4925934;29;20228;-78
2021/08/06 03:04:05;;;;;;;7.53;7.10;;;15.90;99.90;;;;;;4926772;29;20259;-79
2021/08/06 03:06:33;;;;;;;7.70;7.30;;;15.90;99.90;;;;;;4911853;29;20628;-78
2021/08/06 03:09:00;;;;;;;8.00;7.50;;;15.90;99.90;;;;;;4924165;29;20197;-77
2021/08/06 03:11:27;;;;;;;8.27;7.77;;;15.90;99.90;;;;;;4926029;29;20213;-77
2021/08/06 03:13:56;;;;;;;7.70;7.20;;;15.90;99.90;;;;;;4923709;29;20223;-82
2021/08/06 03:16:24;;;;;;;7.80;7.40;;;16.00;99.90;;;;;;4916050;29;20211;-81
2021/08/06 03:18:52;;;;;;;8.00;7.50;;;16.00;99.90;;;;;;4912437;29;20208;-78
2021/08/06 03:21:22;;;;;;;7.87;7.37;;;16.00;99.90;;;;;;4913081;29;20224;-77
2021/08/06 03:23:49;;;;;;;7.90;7.40;;;16.00;99.90;;;;;;4934263;29;20291;-78
2021/08/06 03:26:16;;;;;;;8.03;7.53;;;16.00;99.90;;;;;;4917938;29;20547;-77
2021/08/06 03:28:45;;;;;;;8.70;8.10;;;16.00;99.90;;;;;;4920549;29;20200;-78
2021/08/06 03:31:12;;;;;;;8.20;7.70;;;16.00;99.90;;;;;;4920128;29;20230;-79
2021/08/06 03:33:41;;;;;;;8.77;8.17;;;16.00;99.90;;;;;;4916510;29;20202;-78
2021/08/06 03:36:12;;;;;;;8.33;7.90;;;16.00;99.90;;;;;;4913652;29;20200;-79
2021/08/06 03:38:39;;;;;;;8.20;7.70;;;16.00;99.90;;;;;;4915200;29;20197;-77
2021/08/06 03:41:06;;;;;;;8.37;7.87;;;16.00;99.90;;;;;;4923880;29;20929;-78
2021/08/06 03:43:33;;;;;;;8.90;8.40;;;16.00;99.90;;;;;;4927702;29;20208;-77
2021/08/06 03:45:59;;;;;;;8.50;8.00;;;16.00;99.90;;;;;;4925685;29;20205;-77
2021/08/06 03:48:26;;;;;;;9.03;8.53;;;16.00;99.90;;;;;;4920250;29;20199;-78
2021/08/06 03:50:56;;;;;;;8.20;7.70;;;16.00;99.90;;;;;;4932326;29;21689;-78
2021/08/06 03:53:23;;;;;;;7.77;7.17;;;16.00;99.90;;;;;;4913832;29;20733;-77
2021/08/06 03:55:50;;;;;;;7.13;6.73;;;16.00;99.90;;;;;;4914512;29;20203;-77
2021/08/06 03:58:20;;;;;;;7.00;6.50;;;16.00;99.90;;;;;;4918028;29;20209;-76
2021/08/06 04:00:47;;;;;;;7.47;6.97;;;15.90;99.90;;;;;;4914863;29;20215;-78
2021/08/06 04:03:14;;;;;;;8.10;7.60;;;15.80;99.90;;;;;;4918152;29;20207;-77
2021/08/06 04:05:41;;;;;;;8.47;7.87;;;15.80;99.90;;;;;;4918453;29;20219;-77
2021/08/06 04:08:11;;;;;;;9.30;8.70;;;15.70;99.90;;;;;;4914360;29;20202;-77
2021/08/06 04:10:43;;;;;;;9.37;8.77;;;15.70;99.90;;;;;;4932667;29;20697;-77
2021/08/06 04:13:10;;;;;;;9.63;9.00;;;15.70;99.90;;;;;;4918019;29;20264;-77
2021/08/06 04:15:37;;;;;;;10.27;9.57;;;15.70;99.90;;;;;;4918789;29;20192;-77
2021/08/06 04:18:04;;;;;;;9.80;9.20;;;15.70;99.90;;;;;;4917940;29;20196;-77
2021/08/06 04:20:31;;;;;;;8.97;8.37;;;15.70;99.90;;;;;;4915414;29;20222;-78
2021/08/06 04:22:58;;;;;;;9.10;8.60;;;15.60;99.90;;;;;;4914500;29;20192;-77
2021/08/06 04:25:29;;;;;;;9.90;9.30;;;15.60;99.90;;;;;;4914880;29;20200;-77
2021/08/06 04:27:56;;;;;;;9.60;9.00;;;15.60;99.90;;;;;;4913682;29;20216;-77
2021/08/06 04:30:22;;;;;;;10.80;10.00;;;15.60;99.90;;;;;;4914207;29;20230;-77
2021/08/06 04:32:49;;;;;;;9.97;9.37;;;15.60;99.90;;;;;;4934672;29;20721;-77
2021/08/06 04:35:18;;;;;;;11.03;10.43;;;15.60;99.90;;;;;;4920888;29;20195;-77
2021/08/06 04:37:53;;;;;;;11.10;10.40;;;15.60;99.90;;;;;;4918339;29;20302;-77
2021/08/06 04:40:24;;;;;;;11.77;10.93;;;15.70;99.90;;;;;;4918746;29;20711;-77
2021/08/06 04:42:53;;;;;;;11.80;10.90;;;15.70;99.90;;;;;;4919385;29;20620;-77
2021/08/06 04:45:21;;;;;;;11.10;10.40;;;15.70;99.90;;;;;;4918569;29;20211;-77
2021/08/06 04:47:51;;;;;;;12.37;11.53;;;15.80;99.90;;;;;;4917740;29;20263;-77
2021/08/06 04:50:20;;;;;;;10.50;9.80;;;15.80;99.90;;;;;;4917555;29;20232;-77
2021/08/06 04:52:47;;;;;;;8.40;7.80;;;15.90;99.90;;;;;;4916176;29;20192;-77
2021/08/06 04:55:15;;;;;;;8.87;8.27;;;15.90;99.90;;;;;;4916404;29;20233;-77
2021/08/06 04:57:45;;;;;;;11.77;9.37;;;16.00;99.90;;;;;;4913307;29;20204;-77
2021/08/06 05:00:17;;;;;;;11.70;10.83;;;16.00;99.90;;;;;;4916380;29;20196;-78
2021/08/06 05:02:44;;;;;;;8.50;7.80;;;16.00;99.90;;;;;;4916824;29;20247;-78
2021/08/06 05:05:12;;;;;;;8.53;7.93;;;16.00;99.90;;;;;;4910521;29;20204;-77
2021/08/06 05:07:39;;;;;;;9.53;8.90;;;16.00;99.90;;;;;;4918229;29;20642;-77
2021/08/06 05:10:08;;;;;;;11.10;10.10;;;15.90;99.90;;;;;;4908947;29;20688;-77
2021/08/06 05:12:35;;;;;;;9.07;8.47;;;15.80;99.90;;;;;;4935383;29;20210;-80
2021/08/06 05:15:03;;;;;;;9.43;8.73;;;15.70;99.90;;;;;;4922814;29;20676;-77
2021/08/06 05:17:31;;;;;;;8.80;8.20;;;15.70;99.90;;;;;;4922191;29;20201;-77
2021/08/06 05:19:58;;;;;;;7.57;6.97;;;15.60;99.90;;;;;;4912993;29;20362;-78
2021/08/06 05:22:25;;;;;;;8.00;7.40;;;15.60;99.90;;;;;;4920260;29;20212;-78
2021/08/06 05:24:53;;;;;;;9.07;8.47;;;15.60;99.90;;;;;;4920925;29;20224;-77
2021/08/06 05:27:20;;;;;;;11.47;10.60;;;15.60;99.90;;;;;;4921006;29;20395;-78
2021/08/06 05:29:47;;;;;;;11.77;11.07;;;15.60;99.90;;;;;;4928280;29;20201;-78
2021/08/06 05:32:14;;;;;;;10.50;9.80;;;15.60;99.90;;;;;;4921395;29;20291;-77
2021/08/06 05:34:42;;;;;;;11.27;10.37;;;15.60;99.90;;;;;;4913521;29;20203;-77
2021/08/06 05:37:10;;;;;;;10.87;10.07;;;15.60;99.90;;;;;;4920070;29;20208;-77
2021/08/06 05:39:37;;;;;;;11.20;10.30;;;15.60;99.90;;;;;;4920344;29;20287;-77
2021/08/06 05:42:05;;;;;;;10.63;9.93;;;15.50;99.90;;;;;;4919333;29;20318;-78
2021/08/06 05:44:32;;;;;;;10.10;9.40;;;15.50;99.90;;;;;;4919825;29;20687;-77
2021/08/06 05:46:59;;;;;;;9.10;8.50;;;15.60;99.90;;;;;;4917562;29;20196;-77
2021/08/06 05:49:26;;;;;;;9.40;8.80;;;15.70;99.90;;;;;;4920163;29;20206;-77
2021/08/06 05:51:56;;;;;;;10.37;9.63;;;15.80;99.90;;;;;;4918457;29;20211;-79
2021/08/06 05:54:23;;;;;;;8.40;7.60;;;15.90;99.90;;;;;;4920599;29;20590;-77
2021/08/06 05:56:54;;;;;;;10.80;10.10;;;16.00;99.90;;;;;;4921646;29;20562;-77
2021/08/06 05:59:21;;;;;;;10.97;9.97;;;16.10;99.90;;;;;;4922786;29;20207;-78
2021/08/06 06:01:47;;;;;;;14.07;12.70;;;16.10;99.90;;;;;;4920926;29;20222;-78
2021/08/06 06:04:31;;;;;;;12.50;11.60;;;16.20;99.90;;;;;;4920342;29;20234;-77
2021/08/06 06:07:17;;;;;;;11.60;10.90;;;16.30;99.90;;;;;;4914524;29;20249;-78
2021/08/06 06:09:43;;;;;;;10.93;10.17;;;16.50;99.90;;;;;;4919976;29;20202;-77
2021/08/06 06:12:10;;;;;;;13.77;12.87;;;16.70;99.90;;;;;;4936060;29;20222;-78
2021/08/06 06:14:37;;;;;;;13.97;13.03;;;16.90;99.90;;;;;;4919769;29;20207;-77
2021/08/06 06:17:05;;;;;;;13.33;12.53;;;17.10;99.90;;;;;;4920703;29;20555;-78
2021/08/06 06:19:32;;;;;;;10.17;9.47;;;17.30;99.90;;;;;;4920110;29;20213;-77
2021/08/06 06:21:58;;;;;;;7.87;7.37;;;17.40;99.90;;;;;;4920116;29;20217;-77
2021/08/06 06:24:27;;;;;;;11.50;10.70;;;17.50;99.90;;;;;;4919792;29;20294;-78
2021/08/06 06:26:54;;;;;;;11.03;10.33;;;17.70;99.90;;;;;;4934354;29;20200;-79
2021/08/06 06:29:21;;;;;;;11.13;10.33;;;17.80;99.90;;;;;;4913122;29;20199;-78
2021/08/06 06:31:48;;;;;;;8.40;7.80;;;17.80;99.90;;;;;;4919266;29;20228;-78
2021/08/06 06:34:15;;;;;;;6.90;6.40;;;17.90;99.90;;;;;;4918573;29;20653;-77
2021/08/06 06:36:42;;;;;;;6.73;6.30;;;18.00;99.90;;;;;;4914163;29;20605;-77
2021/08/06 06:39:09;;;;;;;7.30;6.80;;;18.00;99.90;;;;;;4917405;29;20290;-76
2021/08/06 06:41:38;;;;;;;9.30;8.70;;;18.00;99.90;;;;;;4917025;29;20253;-77
2021/08/06 06:44:19;;;;;;;9.97;9.27;;;18.20;99.90;;;;;;4917061;29;20204;-77
2021/08/06 06:46:48;;;;;;;12.60;11.80;;;18.40;99.90;;;;;;4917208;29;20618;-77
2021/08/06 06:49:15;;;;;;;6.37;5.87;;;18.80;99.90;;;;;;4916985;29;20227;-77
2021/08/06 06:51:42;;;;;;;11.50;10.70;;;19.30;99.90;;;;;;4917681;29;20214;-77
2021/08/06 06:54:09;;;;;;;13.40;12.60;;;19.60;99.90;;;;;;4917138;29;20231;-77
2021/08/06 06:56:37;;;;;;;4.17;3.83;;;20.00;99.90;;;;;;4917355;29;20257;-77
2021/08/06 06:59:04;;;;;;;11.40;10.70;;;20.20;99.90;;;;;;4910105;29;20232;-78
2021/08/06 07:01:32;;;;;;;11.43;10.63;;;20.40;99.90;;;;;;4916820;29;20578;-78
2021/08/06 07:03:59;;;;;;;12.20;11.50;;;20.80;99.90;;;;;;4917005;29;20210;-76
2021/08/06 07:06:27;;;;;;;11.53;10.93;;;21.30;99.90;;;;;;4933243;29;20613;-78
2021/08/06 07:08:54;;;;;;;3.97;3.77;;;21.80;99.90;;;;;;4916517;29;20669;-77
2021/08/06 07:11:21;;;;;;;9.30;8.80;;;22.20;99.90;;;;;;4916478;29;20232;-77
2021/08/06 07:13:49;;;;;;;12.40;11.47;;;22.60;99.90;;;;;;4917890;29;20191;-77
2021/08/06 07:16:17;;;;;;;10.60;10.00;;;22.90;99.90;;;;;;4916346;29;20252;-77
2021/08/06 07:18:45;;;;;;;10.40;9.70;;;22.80;99.90;;;;;;4914582;29;20726;-77
2021/08/06 07:21:13;;;;;;;9.90;9.30;;;22.40;99.90;;;;;;4907977;29;20235;-78
2021/08/06 07:23:41;;;;;;;9.43;8.83;;;21.90;99.90;;;;;;4916055;29;20292;-78
2021/08/06 07:26:08;;;;;;;7.40;6.90;;;21.40;99.90;;;;;;4911715;29;20247;-77
2021/08/06 07:28:36;;;;;;;10.93;10.13;;;21.10;99.90;;;;;;4915934;29;20286;-77
2021/08/06 07:31:05;;;;;;;10.73;10.03;;;20.80;99.90;;;;;;4916047;29;20212;-77
2021/08/06 07:33:31;;;;;;;11.30;10.60;;;20.80;99.90;;;;;;4916304;29;20247;-77
2021/08/06 07:35:59;;;;;;;11.03;10.33;;;20.90;99.90;;;;;;4916398;29;20620;-77
2021/08/06 07:38:26;;;;;;;10.97;10.37;;;20.90;99.90;;;;;;4917212;29;20199;-77
2021/08/06 07:40:55;;;;;;;10.87;10.17;;;20.80;99.90;;;;;;4930659;23;20240;-79
2021/08/06 07:43:22;;;;;;;11.10;10.40;;;21.00;99.90;;;;;;4918234;29;20239;-80
2021/08/06 07:45:49;;;;;;;11.13;10.33;;;21.00;99.90;;;;;;4909354;29;20224;-80
2021/08/06 07:48:18;;;;;;;10.40;9.70;;;21.00;99.90;;;;;;4909001;29;20226;-79
2021/08/06 07:50:45;;;;;;;10.30;9.70;;;21.00;99.90;;;;;;4908994;29;20195;-79
2021/08/06 07:53:12;;;;;;;10.60;9.90;;;21.10;99.90;;;;;;4916998;29;20199;-80
2021/08/06 07:55:39;;;;;;;10.83;10.23;;;21.10;99.90;;;;;;4916960;29;20199;-79
2021/08/06 07:58:06;;;;;;;10.20;9.50;;;21.30;99.90;;;;;;4916368;29;20390;-79
2021/08/06 08:00:33;;;;;;;10.47;9.83;;;21.40;99.90;;;;;;4916160;29;20200;-79
2021/08/06 08:03:00;;;;;;;10.10;9.50;;;21.50;99.90;;;;;;4916158;29;20212;-79
2021/08/06 08:05:33;;;;;;;10.00;9.40;;;21.60;99.90;;;;;;4916632;29;20223;-81
2021/08/06 08:08:06;;;;;;;10.83;10.13;;;22.10;99.90;;;;;;4915899;29;20195;-79
2021/08/06 08:10:35;;;;;;;6.40;6.00;;;23.00;99.90;;;;;;4916184;29;20192;-79
2021/08/06 08:13:03;;;;;;;5.30;4.90;;;23.40;99.90;;;;;;4915732;29;20192;-80
2021/08/06 08:15:30;;;;;;;3.77;3.57;;;24.00;99.90;;;;;;4915971;29;20580;-80
2021/08/06 08:17:57;;;;;;;4.67;2.80;;;24.60;99.90;;;;;;4908050;29;20207;-79
2021/08/06 08:20:24;;;;;;;5.23;4.93;;;25.00;99.90;;;;;;4915759;29;20207;-80
2021/08/06 08:22:53;;;;;;;8.23;7.50;;;25.10;99.90;;;;;;4915937;29;20224;-80
2021/08/06 08:25:20;;;;;;;3.43;2.87;;;25.60;99.90;;;;;;4916891;29;20198;-79
2021/08/06 08:27:46;;;;;;;4.27;3.90;;;25.30;99.90;;;;;;4915978;29;20200;-80
2021/08/06 08:30:14;;;;;;;4.73;2.90;;;24.50;99.90;;;;;;4915246;29;20206;-79
2021/08/06 08:32:41;;;;;;;10.40;9.60;;;24.00;99.90;;;;;;4914134;29;20215;-80
2021/08/06 08:35:10;;;;;;;8.37;7.87;;;24.20;99.90;;;;;;4914759;29;20298;-79
2021/08/06 08:37:37;;;;;;;9.33;8.73;;;24.80;99.90;;;;;;4914432;29;20200;-79
2021/08/06 08:40:08;;;;;;;3.33;2.40;;;24.90;99.90;;;;;;4914883;29;20192;-79
2021/08/06 08:42:37;;;;;;;8.57;3.30;;;25.10;99.90;;;;;;4914385;29;20220;-79
2021/08/06 08:45:06;;;;;;;3.23;2.80;;;25.20;99.90;;;;;;4914784;29;20192;-79
2021/08/06 08:47:37;;;;;;;11.63;10.83;;;25.50;99.90;;;;;;4914972;29;20192;-79
2021/08/06 08:50:06;;;;;;;11.13;10.33;;;26.00;99.90;;;;;;4914775;29;20227;-79
2021/08/06 08:52:33;;;;;;;11.37;10.53;;;26.10;99.90;;;;;;4914505;29;20238;-79
2021/08/06 08:55:00;;;;;;;7.50;6.90;;;26.20;99.90;;;;;;4914765;29;20200;-79
2021/08/06 08:57:29;;;;;;;8.53;8.03;;;26.30;99.90;;;;;;4914439;29;20214;-80
2021/08/06 08:59:56;;;;;;;10.50;9.80;;;26.20;99.90;;;;;;4907010;29;20597;-79
2021/08/06 09:02:24;;;;;;;6.40;6.00;;;25.70;99.90;;;;;;4914473;29;20212;-79
2021/08/06 09:05:08;;;;;;;6.90;6.50;;;25.80;99.90;;;;;;4914488;29;20199;-79
2021/08/06 09:07:36;;;;;;;7.47;6.77;;;26.10;99.90;;;;;;4914346;29;20554;-81
2021/08/06 09:10:26;;;;;;;7.07;6.67;;;26.40;99.90;;;;;;4915849;29;20206;-79
2021/08/06 09:13:13;;;;;;;6.90;6.50;;;26.70;99.90;;;;;;4910059;29;20211;-79
2021/08/06 09:16:00;;;;;;;9.00;8.50;;;27.20;99.90;;;;;;4908643;29;20214;-80
2021/08/06 09:18:35;;;;;;;9.60;8.90;;;27.30;99.90;;;;;;4914146;29;20214;-79
2021/08/06 09:21:06;;;;;;;9.80;9.13;;;27.10;99.90;;;;;;4914311;29;20214;-79
2021/08/06 09:23:48;;;;;;;7.83;7.37;;;26.70;99.90;;;;;;4914251;29;20214;-79
2021/08/06 09:26:45;;;;;;;6.53;6.13;;;25.70;99.90;;;;;;4910257;29;20277;-79
2021/08/06 09:29:16;;;;;;;6.47;5.97;;;25.60;99.90;;;;;;4869877;29;20739;-80
2021/08/06 09:31:56;;;;;;;4.30;3.33;;;25.60;99.90;;;;;;4906850;29;20227;-79
2021/08/06 09:34:24;;;;;;;3.43;3.13;;;26.20;99.90;;;;;;4914662;29;20294;-80
2021/08/06 09:37:03;;;;;;;3.50;3.20;;;26.00;99.90;;;;;;4914078;29;20231;-79
2021/08/06 09:39:34;;;;;;;2.70;2.50;;;26.00;99.90;;;;;;4914190;29;20612;-79
2021/08/06 09:42:01;;;;;;;2.47;2.27;;;26.20;99.90;;;;;;4906656;29;20232;-81
2021/08/06 09:44:30;;;;;;;2.37;2.27;;;26.40;99.90;;;;;;4915516;29;20256;-79
2021/08/06 09:46:58;;;;;;;2.77;2.57;;;26.60;99.90;;;;;;4906443;29;20192;-79
2021/08/06 09:49:26;;;;;;;2.50;2.30;;;26.70;99.90;;;;;;4915316;29;20271;-79
2021/08/06 09:51:53;;;;;;;5.10;4.80;;;27.00;99.90;;;;;;4914077;29;20306;-79
2021/08/06 09:54:22;;;;;;;7.83;7.13;;;27.00;99.90;;;;;;4915202;29;20219;-80
2021/08/06 09:57:01;;;;;;;7.87;7.37;;;27.00;99.90;;;;;;4917863;29;20211;-80
2021/08/06 09:59:30;;;;;;;8.33;7.83;;;26.60;99.90;;;;;;4921314;29;20214;-79
2021/08/06 10:02:12;;;;;;;8.73;8.23;;;25.90;99.90;;;;;;4912882;29;20216;-81
2021/08/06 10:04:39;;;;;;;8.90;8.40;;;25.30;99.90;;;;;;4920316;29;20210;-80
2021/08/06 10:07:07;;;;;;;9.30;8.70;;;24.80;99.90;;;;;;4921954;29;20251;-80
2021/08/06 10:09:35;;;;;;;8.60;8.10;;;24.50;99.90;;;;;;4920256;29;20206;-80
2021/08/06 10:12:02;;;;;;;8.60;8.10;;;24.30;99.90;;;;;;4919183;29;20361;-79
2021/08/06 10:14:31;;;;;;;9.37;8.53;;;24.20;99.90;;;;;;4919117;29;20210;-80
2021/08/06 10:16:58;;;;;;;8.93;8.37;;;24.10;99.90;;;;;;4919059;29;20211;-79
2021/08/06 10:19:25;;;;;;;9.70;8.90;;;23.90;99.90;;;;;;4920954;29;20229;-79
2021/08/06 10:21:52;;;;;;;9.50;8.70;;;23.60;99.90;;;;;;4919434;29;20226;-80
2021/08/06 10:24:19;;;;;;;8.93;8.23;;;23.30;99.90;;;;;;4920853;29;20219;-80
2021/08/06 10:26:48;;;;;;;8.53;8.00;;;23.10;99.90;;;;;;4919619;29;20196;-79
2021/08/06 10:29:19;;;;;;;8.60;7.80;;;22.90;99.90;;;;;;4920635;29;20200;-80
2021/08/06 10:32:12;;;;;;;8.90;8.13;;;22.80;99.90;;;;;;4919866;29;20227;-80
2021/08/06 10:35:05;;;;;;;7.90;7.40;;;22.60;99.90;;;;;;4918102;29;20188;-80
2021/08/06 10:37:54;;;;;;;8.60;7.90;;;22.50;99.90;;;;;;4916663;29;20195;-79
2021/08/06 10:41:01;;;;;;;8.33;7.83;;;22.60;99.90;;;;;;4915161;29;20540;-79
2021/08/06 10:43:36;;;;;;;4.60;4.20;;;22.70;99.90;;;;;;4915826;29;20299;-79
2021/08/06 10:46:03;;;;;;;7.67;3.50;;;22.80;99.90;;;;;;4912579;29;20195;-79
2021/08/06 10:48:37;;;;;;;4.33;4.00;;;23.10;99.90;;;;;;4918298;29;20204;-79
2021/08/06 10:51:31;;;;;;;4.50;3.90;;;23.30;99.90;;;;;;4911886;29;20712;-79
2021/08/06 10:54:34;;;;;;;9.70;9.13;;;23.40;99.90;;;;;;4915623;29;20196;-79
2021/08/06 10:57:29;;;;;;;6.33;5.83;;;23.50;99.90;;;;;;4919166;29;20248;-79
2021/08/06 10:59:58;;;;;;;7.97;7.47;;;23.60;99.90;;;;;;4918656;29;20206;-79
2021/08/06 11:02:49;;;;;;;8.20;7.70;;;23.70;99.90;;;;;;4917488;29;20222;-79
2021/08/06 11:05:45;;;;;;;8.63;7.83;;;23.60;99.90;;;;;;4913718;29;20593;-79
2021/08/06 11:08:55;;;;;;;8.20;7.67;;;23.60;99.90;;;;;;4883839;29;20208;-79
2021/08/06 11:11:45;;;;;;;8.10;7.60;;;23.60;99.90;;;;;;4912861;29;20238;-79
2021/08/06 11:14:14;;;;;;;8.10;7.60;;;23.70;99.90;;;;;;4912968;29;20215;-79
2021/08/06 11:17:04;;;;;;;8.33;7.70;;;23.70;99.90;;;;;;4918148;29;20204;-79
2021/08/06 11:19:33;;;;;;;8.33;7.73;;;23.90;99.90;;;;;;4916827;29;20211;-79
2021/08/06 11:22:02;;;;;;;8.10;7.60;;;23.90;99.90;;;;;;4918068;29;20606;-79
2021/08/06 11:24:39;;;;;;;8.67;7.97;;;24.10;99.90;;;;;;4917549;29;20253;-79
2021/08/06 11:27:07;;;;;;;8.10;7.50;;;24.10;99.90;;;;;;4916531;29;20625;-79
2021/08/06 11:29:34;;;;;;;7.50;7.00;;;24.30;99.90;;;;;;4918353;29;20580;-80
2021/08/06 11:32:04;;;;;;;2.77;2.30;;;24.30;99.90;;;;;;4916390;29;20320;-79
2021/08/06 11:34:49;;;;;;;7.00;6.50;;;24.40;99.90;;;;;;4913308;29;20203;-80
2021/08/06 11:37:17;;;;;;;7.60;7.00;;;24.60;99.90;;;;;;4917280;29;20203;-80
2021/08/06 11:40:06;;;;;;;7.03;6.53;;;24.60;99.90;;;;;;4916699;29;20253;-79
2021/08/06 11:42:34;;;;;;;7.50;7.10;;;24.60;99.90;;;;;;4915738;29;20238;-79
2021/08/06 11:45:01;;;;;;;7.83;7.13;;;24.70;99.90;;;;;;4917061;29;20217;-79
2021/08/06 11:47:38;;;;;;;8.00;7.30;;;24.90;99.90;;;;;;4916735;29;20600;-80
2021/08/06 11:50:07;;;;;;;7.80;7.30;;;25.20;99.90;;;;;;4921749;29;20194;-79
2021/08/06 11:52:40;;;;;;;7.90;7.40;;;25.00;99.90;;;;;;4912679;29;20233;-79
2021/08/06 11:55:08;;;;;;;7.63;7.07;;;24.40;99.90;;;;;;4916854;29;20191;-80
2021/08/06 11:57:51;;;;;;;8.37;7.77;;;24.20;99.90;;;;;;4916464;29;20196;-79
2021/08/06 12:00:20;;;;;;;8.20;7.60;;;24.00;99.90;;;;;;4912012;29;20326;-79
2021/08/06 12:02:47;;;;;;;8.60;7.90;;;23.80;99.90;;;;;;4916229;29;20232;-79
2021/08/06 12:05:21;;;;;;;8.57;8.07;;;23.70;99.90;;;;;;4916561;29;20232;-79
2021/08/06 12:07:49;;;;;;;8.00;7.50;;;23.60;99.90;;;;;;4916000;29;20666;-79
2021/08/06 12:10:16;;;;;;;8.57;7.97;;;23.50;99.90;;;;;;4915142;29;20192;-79
2021/08/06 12:12:43;;;;;;;8.00;7.50;;;23.80;99.90;;;;;;4915952;29;20705;-79
2021/08/06 12:15:24;;;;;;;8.17;7.67;;;24.10;99.90;;;;;;4916412;29;20599;-78
2021/08/06 12:18:13;;;;;;;9.03;8.23;;;24.20;99.90;;;;;;4916139;29;20653;-79
2021/08/06 12:20:41;;;;;;;8.80;8.10;;;24.20;99.90;;;;;;4914818;29;20212;-79
2021/08/06 12:23:11;;;;;;;7.87;7.47;;;24.20;99.90;;;;;;4915183;29;20204;-79
2021/08/06 12:25:39;;;;;;;8.43;7.83;;;24.30;99.90;;;;;;4916248;29;20555;-79
2021/08/06 12:28:05;;;;;;;8.13;7.63;;;24.50;99.90;;;;;;4916473;29;20561;-79
2021/08/06 12:30:35;;;;;;;7.80;7.40;;;24.50;99.90;;;;;;4916511;29;20807;-79
2021/08/06 12:33:03;;;;;;;8.23;7.73;;;24.80;99.90;;;;;;4914727;29;20286;-80
2021/08/06 12:35:30;;;;;;;8.40;7.80;;;24.90;99.90;;;;;;4916526;29;20195;-79
2021/08/06 12:37:57;;;;;;;8.40;7.80;;;24.90;99.90;;;;;;4916349;29;20191;-79
2021/08/06 12:40:42;;;;;;;8.13;7.67;;;24.70;99.90;;;;;;4915520;29;20227;-79
2021/08/06 12:43:19;;;;;;;8.57;7.90;;;24.40;99.90;;;;;;4910019;29;20252;-79
2021/08/06 12:45:46;;;;;;;8.00;7.50;;;24.00;99.90;;;;;;4916128;29;20345;-79
2021/08/06 12:48:13;;;;;;;8.67;8.13;;;23.80;99.90;;;;;;4915927;29;20200;-79
2021/08/06 12:50:40;;;;;;;8.90;8.20;;;23.90;99.90;;;;;;4914965;29;20196;-78
2021/08/06 12:53:12;;;;;;;8.30;7.80;;;23.90;99.90;;;;;;4914694;29;20223;-78
2021/08/06 12:55:42;;;;;;;8.00;7.50;;;24.10;99.90;;;;;;4916073;29;20200;-79
2021/08/06 12:58:20;;;;;;;8.10;7.50;;;24.30;99.90;;;;;;4914537;29;20200;-79
2021/08/06 13:00:49;;;;;;;7.63;7.23;;;24.30;99.90;;;;;;4915384;29;20259;-79